sensor_id;sensor_type;location;lat;lon;timestamp;P1;durP1;ratioP1;P2;durP2;ratioP2
40847;SDS011;26570;50.962;5.340;2023-09-18T00:04:28;10.95;;;6.90;;
40847;SDS011;26570;50.962;5.340;2023-09-18T00:08:17;12.60;;;5.80;;
40847;SDS011;26570;50.962;5.340;2023-09-18T00:11:52;9.95;;;7.20;;
40847;SDS011;26570;50.962;5.340;2023-09-18T00:15:44;13.80;;;7.78;;
40847;SDS011;26570;50.962;5.340;2023-09-18T00:19:07;7.65;;;6.10;;
40847;SDS011;26570;50.962;5.340;2023-09-18T00:22:32;12.45;;;6.82;;
40847;SDS011;26570;50.962;5.340;2023-09-18T00:25:48;7.93;;;6.30;;
40847;SDS011;26570;50.962;5.340;2023-09-18T00:29:18;6.80;;;5.55;;
40847;SDS011;26570;50.962;5.340;2023-09-18T00:32:33;10.38;;;6.03;;
40847;SDS011;26570;50.962;5.340;2023-09-18T00:36:02;11.40;;;4.72;;
40847;SDS011;26570;50.962;5.340;2023-09-18T00:47:51;12.50;;;5.85;;
40847;SDS011;26570;50.962;5.340;2023-09-18T00:51:18;11.77;;;6.60;;
40847;SDS011;26570;50.962;5.340;2023-09-18T00:58:02;17.67;;;7.15;;
40847;SDS011;26570;50.962;5.340;2023-09-18T01:01:08;10.10;;;6.70;;
40847;SDS011;26570;50.962;5.340;2023-09-18T01:04:06;8.02;;;5.38;;
40847;SDS011;26570;50.962;5.340;2023-09-18T01:07:25;9.60;;;6.97;;
40847;SDS011;26570;50.962;5.340;2023-09-18T01:14:57;13.63;;;8.18;;
40847;SDS011;26570;50.962;5.340;2023-09-18T01:19:03;13.43;;;7.47;;
40847;SDS011;26570;50.962;5.340;2023-09-18T01:22:36;20.65;;;8.70;;
40847;SDS011;26570;50.962;5.340;2023-09-18T01:26:12;16.38;;;8.25;;
40847;SDS011;26570;50.962;5.340;2023-09-18T01:29:22;17.65;;;7.88;;
40847;SDS011;26570;50.962;5.340;2023-09-18T01:32:17;16.17;;;8.02;;
40847;SDS011;26570;50.962;5.340;2023-09-18T01:35:38;15.45;;;7.60;;
40847;SDS011;26570;50.962;5.340;2023-09-18T01:50:20;15.90;;;6.40;;
40847;SDS011;26570;50.962;5.340;2023-09-18T01:53:46;12.50;;;6.57;;
40847;SDS011;26570;50.962;5.340;2023-09-18T01:57:39;11.98;;;6.10;;
40847;SDS011;26570;50.962;5.340;2023-09-18T02:05:17;15.95;;;4.10;;
40847;SDS011;26570;50.962;5.340;2023-09-18T02:09:04;9.50;;;3.35;;
40847;SDS011;26570;50.962;5.340;2023-09-18T02:27:36;13.00;;;2.38;;
40847;SDS011;26570;50.962;5.340;2023-09-18T02:31:08;15.20;;;2.67;;
40847;SDS011;26570;50.962;5.340;2023-09-18T02:38:29;6.93;;;1.77;;
40847;SDS011;26570;50.962;5.340;2023-09-18T02:41:50;7.53;;;1.20;;
40847;SDS011;26570;50.962;5.340;2023-09-18T02:45:06;4.35;;;1.38;;
40847;SDS011;26570;50.962;5.340;2023-09-18T02:48:03;4.35;;;1.17;;
40847;SDS011;26570;50.962;5.340;2023-09-18T02:51:23;5.25;;;0.90;;
40847;SDS011;26570;50.962;5.340;2023-09-18T02:54:35;5.03;;;1.20;;
40847;SDS011;26570;50.962;5.340;2023-09-18T02:57:57;5.15;;;0.98;;
40847;SDS011;26570;50.962;5.340;2023-09-18T03:00:49;4.50;;;0.90;;
40847;SDS011;26570;50.962;5.340;2023-09-18T03:03:50;3.33;;;0.93;;
40847;SDS011;26570;50.962;5.340;2023-09-18T03:07:37;5.18;;;0.85;;
40847;SDS011;26570;50.962;5.340;2023-09-18T03:10:57;4.10;;;0.80;;
40847;SDS011;26570;50.962;5.340;2023-09-18T03:14:12;2.72;;;0.80;;
40847;SDS011;26570;50.962;5.340;2023-09-18T03:17:22;3.75;;;0.60;;
40847;SDS011;26570;50.962;5.340;2023-09-18T03:20:59;3.85;;;0.70;;
40847;SDS011;26570;50.962;5.340;2023-09-18T03:24:26;2.75;;;0.70;;
40847;SDS011;26570;50.962;5.340;2023-09-18T03:27:57;7.57;;;0.90;;
40847;SDS011;26570;50.962;5.340;2023-09-18T03:30:54;3.75;;;0.70;;
40847;SDS011;26570;50.962;5.340;2023-09-18T03:33:51;8.40;;;1.05;;
40847;SDS011;26570;50.962;5.340;2023-09-18T03:37:04;4.15;;;0.98;;
40847;SDS011;26570;50.962;5.340;2023-09-18T03:44:23;4.47;;;1.10;;
40847;SDS011;26570;50.962;5.340;2023-09-18T03:47:22;4.03;;;0.80;;
40847;SDS011;26570;50.962;5.340;2023-09-18T03:50:10;6.93;;;1.10;;
40847;SDS011;26570;50.962;5.340;2023-09-18T03:53:20;2.97;;;0.75;;
40847;SDS011;26570;50.962;5.340;2023-09-18T04:00:15;8.07;;;1.35;;
40847;SDS011;26570;50.962;5.340;2023-09-18T04:03:51;2.58;;;0.90;;
40847;SDS011;26570;50.962;5.340;2023-09-18T04:07:10;4.32;;;0.85;;
40847;SDS011;26570;50.962;5.340;2023-09-18T04:11:03;7.68;;;0.85;;
40847;SDS011;26570;50.962;5.340;2023-09-18T04:14:26;3.95;;;0.90;;
40847;SDS011;26570;50.962;5.340;2023-09-18T04:17:51;4.75;;;0.90;;
40847;SDS011;26570;50.962;5.340;2023-09-18T04:25:14;3.22;;;0.70;;
40847;SDS011;26570;50.962;5.340;2023-09-18T04:28:30;4.93;;;0.80;;
40847;SDS011;26570;50.962;5.340;2023-09-18T04:32:00;3.63;;;0.80;;
40847;SDS011;26570;50.962;5.340;2023-09-18T04:35:10;2.40;;;0.70;;
40847;SDS011;26570;50.962;5.340;2023-09-18T04:38:44;4.15;;;0.70;;
40847;SDS011;26570;50.962;5.340;2023-09-18T04:46:15;2.90;;;0.80;;
40847;SDS011;26570;50.962;5.340;2023-09-18T04:49:20;5.72;;;0.70;;
40847;SDS011;26570;50.962;5.340;2023-09-18T04:52:57;4.30;;;0.90;;
40847;SDS011;26570;50.962;5.340;2023-09-18T05:00:16;1.95;;;0.55;;
40847;SDS011;26570;50.962;5.340;2023-09-18T05:03:45;4.78;;;0.70;;
40847;SDS011;26570;50.962;5.340;2023-09-18T05:11:31;2.42;;;0.60;;
40847;SDS011;26570;50.962;5.340;2023-09-18T05:15:32;4.05;;;0.70;;
40847;SDS011;26570;50.962;5.340;2023-09-18T05:19:08;2.45;;;0.68;;
40847;SDS011;26570;50.962;5.340;2023-09-18T05:26:31;1.40;;;0.50;;
40847;SDS011;26570;50.962;5.340;2023-09-18T05:30:07;4.35;;;0.60;;
40847;SDS011;26570;50.962;5.340;2023-09-18T05:33:48;2.70;;;0.50;;
40847;SDS011;26570;50.962;5.340;2023-09-18T05:52:23;1.92;;;0.50;;
40847;SDS011;26570;50.962;5.340;2023-09-18T06:07:25;3.60;;;0.50;;
40847;SDS011;26570;50.962;5.340;2023-09-18T06:15:13;6.03;;;0.60;;
40847;SDS011;26570;50.962;5.340;2023-09-18T06:18:22;1.50;;;0.40;;
40847;SDS011;26570;50.962;5.340;2023-09-18T06:22:16;5.70;;;0.60;;
40847;SDS011;26570;50.962;5.340;2023-09-18T06:29:37;2.65;;;1.17;;
40847;SDS011;26570;50.962;5.340;2023-09-18T06:41:12;4.38;;;0.60;;
40847;SDS011;26570;50.962;5.340;2023-09-18T06:45:23;2.38;;;0.50;;
40847;SDS011;26570;50.962;5.340;2023-09-18T07:04:01;3.13;;;0.50;;
40847;SDS011;26570;50.962;5.340;2023-09-18T07:17:25;1.33;;;0.30;;
40847;SDS011;26570;50.962;5.340;2023-09-18T07:20:52;1.85;;;0.35;;
40847;SDS011;26570;50.962;5.340;2023-09-18T07:24:28;2.58;;;0.40;;
40847;SDS011;26570;50.962;5.340;2023-09-18T07:28:16;3.55;;;0.40;;
40847;SDS011;26570;50.962;5.340;2023-09-18T07:32:17;1.65;;;0.50;;
40847;SDS011;26570;50.962;5.340;2023-09-18T07:35:56;1.00;;;0.40;;
40847;SDS011;26570;50.962;5.340;2023-09-18T07:39:44;2.47;;;0.38;;
40847;SDS011;26570;50.962;5.340;2023-09-18T07:47:09;1.52;;;0.30;;
40847;SDS011;26570;50.962;5.340;2023-09-18T07:51:11;1.30;;;0.30;;
40847;SDS011;26570;50.962;5.340;2023-09-18T08:02:47;3.35;;;0.35;;
40847;SDS011;26570;50.962;5.340;2023-09-18T08:09:19;1.45;;;0.30;;
40847;SDS011;26570;50.962;5.340;2023-09-18T08:13:04;2.50;;;0.40;;
40847;SDS011;26570;50.962;5.340;2023-09-18T08:16:31;1.85;;;0.30;;
40847;SDS011;26570;50.962;5.340;2023-09-18T08:19:54;1.75;;;0.30;;
40847;SDS011;26570;50.962;5.340;2023-09-18T08:23:06;1.52;;;0.40;;
40847;SDS011;26570;50.962;5.340;2023-09-18T08:26:51;2.67;;;0.40;;
40847;SDS011;26570;50.962;5.340;2023-09-18T08:30:25;0.95;;;0.30;;
40847;SDS011;26570;50.962;5.340;2023-09-18T08:34:18;2.53;;;0.30;;
40847;SDS011;26570;50.962;5.340;2023-09-18T08:37:51;1.83;;;0.40;;
40847;SDS011;26570;50.962;5.340;2023-09-18T08:41:28;3.22;;;0.30;;
40847;SDS011;26570;50.962;5.340;2023-09-18T08:44:44;1.05;;;0.30;;
40847;SDS011;26570;50.962;5.340;2023-09-18T08:48:10;3.70;;;0.30;;
40847;SDS011;26570;50.962;5.340;2023-09-18T08:51:19;2.95;;;0.30;;
40847;SDS011;26570;50.962;5.340;2023-09-18T08:54:21;2.67;;;0.30;;
40847;SDS011;26570;50.962;5.340;2023-09-18T08:57:25;3.08;;;0.30;;
40847;SDS011;26570;50.962;5.340;2023-09-18T09:00:24;1.40;;;0.40;;
40847;SDS011;26570;50.962;5.340;2023-09-18T09:03:51;3.33;;;0.30;;
40847;SDS011;26570;50.962;5.340;2023-09-18T09:10:15;3.30;;;0.30;;
40847;SDS011;26570;50.962;5.340;2023-09-18T09:13:13;1.98;;;0.35;;
40847;SDS011;26570;50.962;5.340;2023-09-18T09:16:11;2.97;;;0.30;;
40847;SDS011;26570;50.962;5.340;2023-09-18T09:19:36;1.10;;;0.30;;
40847;SDS011;26570;50.962;5.340;2023-09-18T09:22:49;1.60;;;0.30;;
40847;SDS011;26570;50.962;5.340;2023-09-18T09:25:49;1.48;;;0.30;;
40847;SDS011;26570;50.962;5.340;2023-09-18T09:33:11;1.85;;;0.30;;
40847;SDS011;26570;50.962;5.340;2023-09-18T09:36:08;1.90;;;0.40;;
40847;SDS011;26570;50.962;5.340;2023-09-18T09:39:18;6.82;;;0.35;;
40847;SDS011;26570;50.962;5.340;2023-09-18T09:42:16;1.42;;;0.40;;
40847;SDS011;26570;50.962;5.340;2023-09-18T09:45:22;4.57;;;0.40;;
40847;SDS011;26570;50.962;5.340;2023-09-18T09:48:20;1.77;;;0.40;;
40847;SDS011;26570;50.962;5.340;2023-09-18T09:51:17;2.00;;;0.30;;
40847;SDS011;26570;50.962;5.340;2023-09-18T09:54:07;1.08;;;0.32;;
40847;SDS011;26570;50.962;5.340;2023-09-18T09:57:24;1.92;;;0.50;;
40847;SDS011;26570;50.962;5.340;2023-09-18T10:00:30;3.33;;;0.40;;
40847;SDS011;26570;50.962;5.340;2023-09-18T10:03:52;4.05;;;0.68;;
40847;SDS011;26570;50.962;5.340;2023-09-18T10:07:30;6.40;;;0.50;;
40847;SDS011;26570;50.962;5.340;2023-09-18T10:10:50;2.15;;;0.47;;
40847;SDS011;26570;50.962;5.340;2023-09-18T10:13:48;1.52;;;0.40;;
40847;SDS011;26570;50.962;5.340;2023-09-18T10:17:47;2.47;;;0.40;;
40847;SDS011;26570;50.962;5.340;2023-09-18T10:32:50;2.57;;;0.50;;
40847;SDS011;26570;50.962;5.340;2023-09-18T10:36:02;2.88;;;0.40;;
40847;SDS011;26570;50.962;5.340;2023-09-18T10:39:08;1.88;;;0.40;;
40847;SDS011;26570;50.962;5.340;2023-09-18T10:43:08;1.65;;;0.38;;
40847;SDS011;26570;50.962;5.340;2023-09-18T10:49:49;3.03;;;0.40;;
40847;SDS011;26570;50.962;5.340;2023-09-18T10:56:46;3.13;;;0.40;;
40847;SDS011;26570;50.962;5.340;2023-09-18T11:00:07;2.35;;;0.40;;
40847;SDS011;26570;50.962;5.340;2023-09-18T11:03:47;1.70;;;0.40;;
40847;SDS011;26570;50.962;5.340;2023-09-18T11:07:20;2.65;;;0.47;;
40847;SDS011;26570;50.962;5.340;2023-09-18T11:10:51;7.68;;;0.63;;
40847;SDS011;26570;50.962;5.340;2023-09-18T11:18:02;1.80;;;0.40;;
40847;SDS011;26570;50.962;5.340;2023-09-18T11:21:07;2.00;;;0.40;;
40847;SDS011;26570;50.962;5.340;2023-09-18T11:24:34;3.53;;;0.45;;
40847;SDS011;26570;50.962;5.340;2023-09-18T11:28:25;2.80;;;0.40;;
40847;SDS011;26570;50.962;5.340;2023-09-18T11:39:39;3.00;;;0.40;;
40847;SDS011;26570;50.962;5.340;2023-09-18T11:42:29;3.33;;;0.40;;
40847;SDS011;26570;50.962;5.340;2023-09-18T11:45:56;2.25;;;0.40;;
40847;SDS011;26570;50.962;5.340;2023-09-18T11:49:18;3.47;;;0.40;;
40847;SDS011;26570;50.962;5.340;2023-09-18T11:52:34;1.50;;;0.40;;
40847;SDS011;26570;50.962;5.340;2023-09-18T11:55:30;3.10;;;0.47;;
40847;SDS011;26570;50.962;5.340;2023-09-18T11:58:28;4.05;;;0.40;;
40847;SDS011;26570;50.962;5.340;2023-09-18T12:02:09;1.52;;;0.30;;
40847;SDS011;26570;50.962;5.340;2023-09-18T12:05:16;1.02;;;0.40;;
40847;SDS011;26570;50.962;5.340;2023-09-18T12:08:11;4.38;;;0.30;;
40847;SDS011;26570;50.962;5.340;2023-09-18T12:11:14;2.35;;;0.35;;
40847;SDS011;26570;50.962;5.340;2023-09-18T12:14:55;1.50;;;0.30;;
40847;SDS011;26570;50.962;5.340;2023-09-18T12:18:15;1.35;;;0.40;;
40847;SDS011;26570;50.962;5.340;2023-09-18T12:21:40;2.28;;;0.40;;
40847;SDS011;26570;50.962;5.340;2023-09-18T12:25:14;2.15;;;0.40;;
40847;SDS011;26570;50.962;5.340;2023-09-18T12:28:51;1.98;;;0.30;;
40847;SDS011;26570;50.962;5.340;2023-09-18T12:31:43;0.80;;;0.30;;
40847;SDS011;26570;50.962;5.340;2023-09-18T12:34:40;1.60;;;0.30;;
40847;SDS011;26570;50.962;5.340;2023-09-18T12:37:59;1.52;;;0.30;;
40847;SDS011;26570;50.962;5.340;2023-09-18T12:41:11;1.50;;;0.30;;
40847;SDS011;26570;50.962;5.340;2023-09-18T12:44:01;1.75;;;0.50;;
40847;SDS011;26570;50.962;5.340;2023-09-18T12:47:00;2.33;;;0.40;;
40847;SDS011;26570;50.962;5.340;2023-09-18T12:50:13;1.92;;;0.45;;
40847;SDS011;26570;50.962;5.340;2023-09-18T12:53:40;1.40;;;0.30;;
40847;SDS011;26570;50.962;5.340;2023-09-18T12:56:51;3.00;;;0.30;;
40847;SDS011;26570;50.962;5.340;2023-09-18T13:00:20;0.90;;;0.30;;
40847;SDS011;26570;50.962;5.340;2023-09-18T13:03:13;1.88;;;0.30;;
40847;SDS011;26570;50.962;5.340;2023-09-18T13:06:37;2.17;;;0.30;;
40847;SDS011;26570;50.962;5.340;2023-09-18T13:09:36;1.38;;;0.30;;
40847;SDS011;26570;50.962;5.340;2023-09-18T13:12:40;1.23;;;0.30;;
40847;SDS011;26570;50.962;5.340;2023-09-18T13:15:50;0.63;;;0.20;;
40847;SDS011;26570;50.962;5.340;2023-09-18T13:21:48;0.80;;;0.30;;
40847;SDS011;26570;50.962;5.340;2023-09-18T13:25:03;1.10;;;0.28;;
40847;SDS011;26570;50.962;5.340;2023-09-18T13:27:51;0.73;;;0.30;;
40847;SDS011;26570;50.962;5.340;2023-09-18T13:30:58;1.52;;;0.38;;
40847;SDS011;26570;50.962;5.340;2023-09-18T13:34:15;3.13;;;0.30;;
40847;SDS011;26570;50.962;5.340;2023-09-18T13:37:18;1.20;;;0.25;;
40847;SDS011;26570;50.962;5.340;2023-09-18T13:40:42;0.98;;;0.30;;
40847;SDS011;26570;50.962;5.340;2023-09-18T13:44:27;1.92;;;0.20;;
40847;SDS011;26570;50.962;5.340;2023-09-18T13:47:41;2.72;;;0.30;;
40847;SDS011;26570;50.962;5.340;2023-09-18T13:51:14;2.17;;;0.30;;
40847;SDS011;26570;50.962;5.340;2023-09-18T13:54:38;2.13;;;0.30;;
40847;SDS011;26570;50.962;5.340;2023-09-18T14:01:53;1.50;;;0.20;;
40847;SDS011;26570;50.962;5.340;2023-09-18T14:05:05;1.95;;;0.30;;
40847;SDS011;26570;50.962;5.340;2023-09-18T14:12:47;2.88;;;0.30;;
40847;SDS011;26570;50.962;5.340;2023-09-18T14:15:42;1.13;;;0.30;;
40847;SDS011;26570;50.962;5.340;2023-09-18T14:18:40;1.20;;;0.22;;
40847;SDS011;26570;50.962;5.340;2023-09-18T14:21:54;5.88;;;0.30;;
40847;SDS011;26570;50.962;5.340;2023-09-18T14:25:28;0.65;;;0.20;;
40847;SDS011;26570;50.962;5.340;2023-09-18T14:28:40;1.85;;;0.25;;
40847;SDS011;26570;50.962;5.340;2023-09-18T14:31:39;0.90;;;0.20;;
40847;SDS011;26570;50.962;5.340;2023-09-18T14:34:41;1.75;;;0.20;;
40847;SDS011;26570;50.962;5.340;2023-09-18T14:37:40;0.88;;;0.30;;
40847;SDS011;26570;50.962;5.340;2023-09-18T14:40:51;1.52;;;0.20;;
40847;SDS011;26570;50.962;5.340;2023-09-18T14:44:35;3.45;;;0.20;;
40847;SDS011;26570;50.962;5.340;2023-09-18T14:47:38;1.88;;;0.30;;
40847;SDS011;26570;50.962;5.340;2023-09-18T14:50:57;2.67;;;0.35;;
40847;SDS011;26570;50.962;5.340;2023-09-18T14:53:53;0.85;;;0.20;;
40847;SDS011;26570;50.962;5.340;2023-09-18T14:56:52;0.98;;;0.20;;
40847;SDS011;26570;50.962;5.340;2023-09-18T14:59:52;3.33;;;0.30;;
40847;SDS011;26570;50.962;5.340;2023-09-18T15:02:50;0.73;;;0.20;;
40847;SDS011;26570;50.962;5.340;2023-09-18T15:05:47;2.28;;;0.20;;
40847;SDS011;26570;50.962;5.340;2023-09-18T15:08:48;0.93;;;0.20;;
40847;SDS011;26570;50.962;5.340;2023-09-18T15:12:00;3.90;;;0.30;;
40847;SDS011;26570;50.962;5.340;2023-09-18T15:15:18;1.13;;;0.30;;
40847;SDS011;26570;50.962;5.340;2023-09-18T15:18:34;1.80;;;0.30;;
40847;SDS011;26570;50.962;5.340;2023-09-18T15:22:12;2.10;;;0.40;;
40847;SDS011;26570;50.962;5.340;2023-09-18T15:25:10;2.08;;;0.30;;
40847;SDS011;26570;50.962;5.340;2023-09-18T15:28:30;1.85;;;0.30;;
40847;SDS011;26570;50.962;5.340;2023-09-18T15:31:47;2.28;;;0.30;;
40847;SDS011;26570;50.962;5.340;2023-09-18T15:35:13;1.00;;;0.35;;
40847;SDS011;26570;50.962;5.340;2023-09-18T15:38:08;1.15;;;0.30;;
40847;SDS011;26570;50.962;5.340;2023-09-18T15:41:50;2.05;;;0.30;;
40847;SDS011;26570;50.962;5.340;2023-09-18T15:44:37;2.45;;;0.22;;
40847;SDS011;26570;50.962;5.340;2023-09-18T15:47:24;2.38;;;0.30;;
40847;SDS011;26570;50.962;5.340;2023-09-18T15:50:43;2.25;;;0.40;;
40847;SDS011;26570;50.962;5.340;2023-09-18T15:54:10;1.42;;;0.30;;
40847;SDS011;26570;50.962;5.340;2023-09-18T15:57:07;2.03;;;0.60;;
40847;SDS011;26570;50.962;5.340;2023-09-18T16:00:29;3.28;;;0.35;;
40847;SDS011;26570;50.962;5.340;2023-09-18T16:03:31;1.00;;;0.60;;
40847;SDS011;26570;50.962;5.340;2023-09-18T16:06:54;1.60;;;0.30;;
40847;SDS011;26570;50.962;5.340;2023-09-18T16:10:31;2.75;;;0.40;;
40847;SDS011;26570;50.962;5.340;2023-09-18T16:14:05;1.10;;;0.30;;
40847;SDS011;26570;50.962;5.340;2023-09-18T16:16:55;4.30;;;0.40;;
40847;SDS011;26570;50.962;5.340;2023-09-18T16:20:21;1.73;;;0.30;;
40847;SDS011;26570;50.962;5.340;2023-09-18T16:23:32;1.20;;;0.30;;
40847;SDS011;26570;50.962;5.340;2023-09-18T16:26:56;1.30;;;0.22;;
40847;SDS011;26570;50.962;5.340;2023-09-18T16:30:51;2.25;;;0.45;;
40847;SDS011;26570;50.962;5.340;2023-09-18T16:45:34;0.60;;;0.30;;
40847;SDS011;26570;50.962;5.340;2023-09-18T16:48:59;2.70;;;0.30;;
40847;SDS011;26570;50.962;5.340;2023-09-18T16:56:22;2.35;;;0.40;;
40847;SDS011;26570;50.962;5.340;2023-09-18T16:59:57;1.65;;;0.30;;
40847;SDS011;26570;50.962;5.340;2023-09-18T17:07:04;1.85;;;0.30;;
40847;SDS011;26570;50.962;5.340;2023-09-18T17:10:32;1.95;;;0.30;;
40847;SDS011;26570;50.962;5.340;2023-09-18T17:13:49;0.80;;;0.20;;
40847;SDS011;26570;50.962;5.340;2023-09-18T17:18:06;1.38;;;0.20;;
40847;SDS011;26570;50.962;5.340;2023-09-18T17:21:28;1.65;;;0.30;;
40847;SDS011;26570;50.962;5.340;2023-09-18T17:25:12;1.33;;;0.50;;
40847;SDS011;26570;50.962;5.340;2023-09-18T17:29:38;1.33;;;0.32;;
40847;SDS011;26570;50.962;5.340;2023-09-18T17:38:03;0.88;;;0.20;;
40847;SDS011;26570;50.962;5.340;2023-09-18T17:44:02;1.00;;;0.30;;
40847;SDS011;26570;50.962;5.340;2023-09-18T17:46:57;1.88;;;0.43;;
40847;SDS011;26570;50.962;5.340;2023-09-18T17:49:43;4.78;;;0.30;;
40847;SDS011;26570;50.962;5.340;2023-09-18T17:52:35;1.63;;;0.50;;
40847;SDS011;26570;50.962;5.340;2023-09-18T17:55:22;0.88;;;0.20;;
40847;SDS011;26570;50.962;5.340;2023-09-18T17:58:23;1.08;;;0.30;;
40847;SDS011;26570;50.962;5.340;2023-09-18T18:01:21;1.17;;;0.38;;
40847;SDS011;26570;50.962;5.340;2023-09-18T18:04:07;1.10;;;0.30;;
40847;SDS011;26570;50.962;5.340;2023-09-18T18:06:56;1.10;;;0.30;;
40847;SDS011;26570;50.962;5.340;2023-09-18T18:09:42;0.93;;;0.30;;
40847;SDS011;26570;50.962;5.340;2023-09-18T18:12:39;1.25;;;0.32;;
40847;SDS011;26570;50.962;5.340;2023-09-18T18:15:26;0.90;;;0.30;;
40847;SDS011;26570;50.962;5.340;2023-09-18T18:18:12;2.25;;;0.30;;
40847;SDS011;26570;50.962;5.340;2023-09-18T18:20:57;2.42;;;0.30;;
40847;SDS011;26570;50.962;5.340;2023-09-18T18:23:44;1.67;;;0.40;;
40847;SDS011;26570;50.962;5.340;2023-09-18T18:26:31;1.55;;;0.30;;
40847;SDS011;26570;50.962;5.340;2023-09-18T18:29:18;2.63;;;0.30;;
40847;SDS011;26570;50.962;5.340;2023-09-18T18:32:05;2.25;;;0.40;;
40847;SDS011;26570;50.962;5.340;2023-09-18T18:34:51;3.47;;;0.35;;
40847;SDS011;26570;50.962;5.340;2023-09-18T18:37:38;3.58;;;0.40;;
40847;SDS011;26570;50.962;5.340;2023-09-18T18:40:23;1.02;;;0.35;;
40847;SDS011;26570;50.962;5.340;2023-09-18T18:43:10;1.73;;;0.40;;
40847;SDS011;26570;50.962;5.340;2023-09-18T18:45:59;1.33;;;0.40;;
40847;SDS011;26570;50.962;5.340;2023-09-18T18:48:45;2.83;;;0.30;;
40847;SDS011;26570;50.962;5.340;2023-09-18T18:51:31;2.08;;;0.30;;
40847;SDS011;26570;50.962;5.340;2023-09-18T18:54:17;4.63;;;0.40;;
40847;SDS011;26570;50.962;5.340;2023-09-18T18:57:03;1.05;;;0.40;;
40847;SDS011;26570;50.962;5.340;2023-09-18T18:59:49;1.70;;;0.40;;
40847;SDS011;26570;50.962;5.340;2023-09-18T19:02:34;1.40;;;0.40;;
40847;SDS011;26570;50.962;5.340;2023-09-18T19:05:20;1.10;;;0.40;;
40847;SDS011;26570;50.962;5.340;2023-09-18T19:08:08;1.77;;;0.47;;
40847;SDS011;26570;50.962;5.340;2023-09-18T19:10:53;0.93;;;0.40;;
40847;SDS011;26570;50.962;5.340;2023-09-18T19:13:39;1.63;;;0.40;;
40847;SDS011;26570;50.962;5.340;2023-09-18T19:16:27;1.23;;;0.40;;
40847;SDS011;26570;50.962;5.340;2023-09-18T19:19:14;2.40;;;0.50;;
40847;SDS011;26570;50.962;5.340;2023-09-18T19:22:00;3.20;;;0.53;;
40847;SDS011;26570;50.962;5.340;2023-09-18T19:24:48;1.80;;;0.40;;
40847;SDS011;26570;50.962;5.340;2023-09-18T19:27:34;3.23;;;0.30;;
40847;SDS011;26570;50.962;5.340;2023-09-18T19:30:22;1.70;;;0.40;;
40847;SDS011;26570;50.962;5.340;2023-09-18T19:33:09;2.47;;;0.40;;
40847;SDS011;26570;50.962;5.340;2023-09-18T19:35:55;1.90;;;0.40;;
40847;SDS011;26570;50.962;5.340;2023-09-18T19:38:42;3.20;;;0.50;;
40847;SDS011;26570;50.962;5.340;2023-09-18T19:41:27;2.10;;;0.30;;
40847;SDS011;26570;50.962;5.340;2023-09-18T19:44:14;1.83;;;0.30;;
40847;SDS011;26570;50.962;5.340;2023-09-18T19:47:16;4.00;;;0.40;;
40847;SDS011;26570;50.962;5.340;2023-09-18T19:50:03;6.10;;;0.40;;
40847;SDS011;26570;50.962;5.340;2023-09-18T19:52:51;3.40;;;0.30;;
40847;SDS011;26570;50.962;5.340;2023-09-18T19:59:00;2.70;;;0.30;;
40847;SDS011;26570;50.962;5.340;2023-09-18T20:01:58;6.53;;;0.40;;
40847;SDS011;26570;50.962;5.340;2023-09-18T20:05:24;4.60;;;0.60;;
40847;SDS011;26570;50.962;5.340;2023-09-18T20:08:11;5.90;;;0.60;;
40847;SDS011;26570;50.962;5.340;2023-09-18T20:10:57;3.87;;;0.60;;
40847;SDS011;26570;50.962;5.340;2023-09-18T20:13:47;2.83;;;0.60;;
40847;SDS011;26570;50.962;5.340;2023-09-18T20:16:37;4.40;;;0.50;;
40847;SDS011;26570;50.962;5.340;2023-09-18T20:19:23;3.67;;;0.43;;
40847;SDS011;26570;50.962;5.340;2023-09-18T20:22:12;3.67;;;0.50;;
40847;SDS011;26570;50.962;5.340;2023-09-18T20:24:59;3.40;;;0.30;;
40847;SDS011;26570;50.962;5.340;2023-09-18T20:27:45;3.40;;;0.40;;
40847;SDS011;26570;50.962;5.340;2023-09-18T20:30:31;6.13;;;0.30;;
40847;SDS011;26570;50.962;5.340;2023-09-18T20:33:18;4.47;;;0.40;;
40847;SDS011;26570;50.962;5.340;2023-09-18T20:36:05;2.27;;;0.57;;
40847;SDS011;26570;50.962;5.340;2023-09-18T20:38:52;4.63;;;0.87;;
40847;SDS011;26570;50.962;5.340;2023-09-18T20:41:37;5.73;;;0.30;;
40847;SDS011;26570;50.962;5.340;2023-09-18T20:44:23;8.27;;;0.30;;
40847;SDS011;26570;50.962;5.340;2023-09-18T20:47:08;2.30;;;0.40;;
40847;SDS011;26570;50.962;5.340;2023-09-18T20:49:54;2.23;;;0.30;;
40847;SDS011;26570;50.962;5.340;2023-09-18T20:52:40;4.20;;;0.40;;
40847;SDS011;26570;50.962;5.340;2023-09-18T20:55:27;3.03;;;0.40;;
40847;SDS011;26570;50.962;5.340;2023-09-18T20:58:13;5.00;;;0.30;;
40847;SDS011;26570;50.962;5.340;2023-09-18T21:00:59;4.60;;;0.40;;
40847;SDS011;26570;50.962;5.340;2023-09-18T21:03:44;8.30;;;0.40;;
40847;SDS011;26570;50.962;5.340;2023-09-18T21:06:31;11.40;;;0.50;;
40847;SDS011;26570;50.962;5.340;2023-09-18T21:09:17;4.80;;;0.40;;
40847;SDS011;26570;50.962;5.340;2023-09-18T21:12:03;7.43;;;0.50;;
40847;SDS011;26570;50.962;5.340;2023-09-18T21:14:50;5.37;;;0.70;;
40847;SDS011;26570;50.962;5.340;2023-09-18T21:17:36;12.40;;;1.00;;
40847;SDS011;26570;50.962;5.340;2023-09-18T21:20:22;8.77;;;0.70;;
40847;SDS011;26570;50.962;5.340;2023-09-18T21:23:09;4.47;;;0.40;;
40847;SDS011;26570;50.962;5.340;2023-09-18T21:25:55;7.37;;;0.40;;
40847;SDS011;26570;50.962;5.340;2023-09-18T21:28:42;5.27;;;0.40;;
40847;SDS011;26570;50.962;5.340;2023-09-18T21:31:28;7.43;;;0.60;;
40847;SDS011;26570;50.962;5.340;2023-09-18T21:34:14;7.17;;;0.90;;
40847;SDS011;26570;50.962;5.340;2023-09-18T21:36:59;6.30;;;0.40;;
40847;SDS011;26570;50.962;5.340;2023-09-18T21:39:45;8.43;;;0.40;;
40847;SDS011;26570;50.962;5.340;2023-09-18T21:42:31;8.20;;;0.50;;
40847;SDS011;26570;50.962;5.340;2023-09-18T21:45:17;7.97;;;1.00;;
40847;SDS011;26570;50.962;5.340;2023-09-18T21:48:04;8.90;;;0.60;;
40847;SDS011;26570;50.962;5.340;2023-09-18T21:50:50;9.00;;;0.57;;
40847;SDS011;26570;50.962;5.340;2023-09-18T21:53:35;7.63;;;0.60;;
40847;SDS011;26570;50.962;5.340;2023-09-18T21:56:21;6.60;;;0.47;;
40847;SDS011;26570;50.962;5.340;2023-09-18T21:59:06;11.07;;;0.50;;
40847;SDS011;26570;50.962;5.340;2023-09-18T22:01:52;7.83;;;0.43;;
40847;SDS011;26570;50.962;5.340;2023-09-18T22:04:39;6.70;;;0.70;;
40847;SDS011;26570;50.962;5.340;2023-09-18T22:07:25;13.30;;;1.57;;
40847;SDS011;26570;50.962;5.340;2023-09-18T22:10:11;8.40;;;0.50;;
40847;SDS011;26570;50.962;5.340;2023-09-18T22:12:57;9.67;;;0.60;;
40847;SDS011;26570;50.962;5.340;2023-09-18T22:15:43;7.27;;;0.70;;
40847;SDS011;26570;50.962;5.340;2023-09-18T22:18:29;12.33;;;0.60;;
40847;SDS011;26570;50.962;5.340;2023-09-18T22:21:15;6.67;;;0.40;;
40847;SDS011;26570;50.962;5.340;2023-09-18T22:24:01;6.77;;;0.50;;
40847;SDS011;26570;50.962;5.340;2023-09-18T22:26:47;10.10;;;0.70;;
40847;SDS011;26570;50.962;5.340;2023-09-18T22:29:33;7.77;;;0.50;;
40847;SDS011;26570;50.962;5.340;2023-09-18T22:32:19;10.33;;;0.50;;
40847;SDS011;26570;50.962;5.340;2023-09-18T22:35:07;6.33;;;0.50;;
40847;SDS011;26570;50.962;5.340;2023-09-18T22:37:56;14.23;;;0.97;;
40847;SDS011;26570;50.962;5.340;2023-09-18T22:56:35;14.97;;;0.70;;
40847;SDS011;26570;50.962;5.340;2023-09-18T22:59:21;9.70;;;0.80;;
